Time;durP1;ratioP1;P1;durP2;ratioP2;P2;SDS_P1;SDS_P2;PMS_P1;PMS_P2;Temp;Humidity;BMP_temperature;BMP_pressure;BME280_temperature;BME280_humidity;BME280_pressure;Samples;Min_cycle;Max_cycle;Signal;HPM_P1;HPM_P2
2021/09/21 00:00:35;;;;;;;31.77;18.37;;;12.20;94.40;;;;;;2057458;28;20233;-64
2021/09/21 00:01:36;;;;;;;33.90;19.13;;;12.20;94.20;;;;;;2057228;28;20187;-64
2021/09/21 00:02:37;;;;;;;38.87;19.13;;;12.20;94.20;;;;;;2057293;28;20510;-66
2021/09/21 00:03:38;;;;;;;34.47;18.67;;;12.20;94.30;;;;;;2057421;28;20218;-64
2021/09/21 00:04:38;;;;;;;30.20;17.23;;;12.20;94.50;;;;;;2057360;28;20288;-64
2021/09/21 00:05:39;;;;;;;36.23;17.37;;;12.20;94.60;;;;;;2057257;28;20197;-65
2021/09/21 00:06:40;;;;;;;30.37;17.70;;;12.10;94.70;;;;;;2057490;28;20175;-63
2021/09/21 00:07:40;;;;;;;32.77;17.73;;;12.10;95.00;;;;;;2057483;28;20186;-65
2021/09/21 00:08:41;;;;;;;32.37;17.83;;;12.10;95.00;;;;;;2057465;28;20186;-67
2021/09/21 00:09:43;;;;;;;34.10;18.55;;;12.00;95.00;;;;;;2057509;28;20186;-65
2021/09/21 00:10:44;;;;;;;31.88;18.05;;;12.00;95.00;;;;;;2057273;28;20193;-65
2021/09/21 00:11:45;;;;;;;31.63;18.50;;;12.10;95.00;;;;;;2057265;28;20270;-66
2021/09/21 00:12:46;;;;;;;29.13;17.77;;;12.10;94.80;;;;;;2057384;28;20221;-65
2021/09/21 00:13:47;;;;;;;36.55;18.38;;;12.10;94.90;;;;;;2057362;28;20646;-64
2021/09/21 00:14:48;;;;;;;29.80;17.25;;;12.10;94.80;;;;;;2057248;28;20186;-65
2021/09/21 00:15:49;;;;;;;31.10;16.93;;;12.10;94.70;;;;;;2057435;28;20183;-65
2021/09/21 00:16:49;;;;;;;32.73;16.60;;;12.10;94.60;;;;;;2064785;28;20182;-66
2021/09/21 00:17:52;;;;;;;35.57;17.87;;;12.20;94.60;;;;;;2064851;28;20206;-66
2021/09/21 00:18:52;;;;;;;29.63;17.30;;;12.10;94.60;;;;;;2057321;28;20530;-65
2021/09/21 00:19:53;;;;;;;32.83;18.70;;;12.10;94.60;;;;;;2057292;28;20193;-67
2021/09/21 00:20:54;;;;;;;33.17;17.33;;;12.20;94.60;;;;;;2057169;28;20198;-66
2021/09/21 00:21:55;;;;;;;33.77;17.50;;;12.20;94.60;;;;;;2057182;28;20183;-65
2021/09/21 00:22:55;;;;;;;29.47;16.87;;;12.20;94.50;;;;;;2057250;28;20202;-66
2021/09/21 00:23:56;;;;;;;35.87;17.80;;;12.20;94.40;;;;;;2057326;28;20253;-65
2021/09/21 00:24:57;;;;;;;32.87;17.93;;;12.20;94.30;;;;;;2057403;28;20190;-65
2021/09/21 00:25:58;;;;;;;37.27;17.47;;;12.20;94.40;;;;;;2057380;28;20234;-67
2021/09/21 00:26:59;;;;;;;27.27;16.15;;;12.20;94.60;;;;;;2057307;28;20194;-65
2021/09/21 00:27:59;;;;;;;28.73;17.40;;;12.10;95.10;;;;;;2056711;28;20193;-66
2021/09/21 00:29:00;;;;;;;31.70;17.60;;;12.10;94.50;;;;;;2056688;28;20211;-65
2021/09/21 00:30:03;;;;;;;30.00;16.25;;;12.10;94.50;;;;;;2057456;28;20233;-65
2021/09/21 00:31:08;;;;;;;33.90;17.13;;;12.10;94.70;;;;;;2056484;28;20199;-66
2021/09/21 00:32:15;;;;;;;32.70;17.60;;;12.00;95.00;;;;;;2056887;28;20167;-65
2021/09/21 00:33:20;;;;;;;32.58;16.80;;;11.90;95.20;;;;;;2057406;28;20202;-65
2021/09/21 00:34:21;;;;;;;32.03;17.20;;;11.80;95.30;;;;;;2057432;28;20179;-65
2021/09/21 00:35:21;;;;;;;31.97;17.30;;;11.80;95.50;;;;;;2057224;28;20524;-67
2021/09/21 00:36:22;;;;;;;33.23;17.53;;;11.80;95.40;;;;;;2057274;28;20182;-65
2021/09/21 00:37:23;;;;;;;30.60;16.40;;;11.80;95.40;;;;;;2057093;28;20183;-65
2021/09/21 00:38:24;;;;;;;32.67;17.77;;;11.80;95.50;;;;;;2057390;28;20183;-66
2021/09/21 00:39:25;;;;;;;33.07;17.37;;;11.80;95.50;;;;;;2057197;28;20245;-65
2021/09/21 00:40:26;;;;;;;32.37;17.57;;;11.80;95.60;;;;;;2057433;28;20192;-65
2021/09/21 00:41:28;;;;;;;33.67;16.83;;;11.80;95.60;;;;;;2057078;28;20367;-65
2021/09/21 00:42:31;;;;;;;31.58;17.08;;;11.80;95.70;;;;;;2057145;28;20588;-65
2021/09/21 00:43:32;;;;;;;31.45;17.08;;;11.70;95.80;;;;;;2057249;28;20186;-65
2021/09/21 00:44:34;;;;;;;32.20;16.80;;;11.60;95.90;;;;;;2057350;28;20183;-64
2021/09/21 00:45:35;;;;;;;31.33;17.98;;;11.60;96.00;;;;;;2057251;28;20185;-65
2021/09/21 00:46:36;;;;;;;27.77;16.43;;;11.60;96.10;;;;;;2057427;28;20186;-65
2021/09/21 00:47:37;;;;;;;30.58;16.60;;;11.60;96.00;;;;;;2057212;28;20551;-65
2021/09/21 00:48:38;;;;;;;32.33;17.67;;;11.60;95.90;;;;;;2057321;28;20183;-64
2021/09/21 00:49:38;;;;;;;33.07;17.23;;;11.70;95.80;;;;;;2057290;28;20717;-65
2021/09/21 00:50:39;;;;;;;32.33;16.40;;;11.60;95.90;;;;;;2057318;28;20187;-65
2021/09/21 00:51:41;;;;;;;33.50;17.30;;;11.60;96.20;;;;;;2056986;28;20186;-66
2021/09/21 00:52:42;;;;;;;30.95;17.85;;;11.50;96.30;;;;;;2057173;28;20712;-65
2021/09/21 00:53:43;;;;;;;28.77;16.73;;;11.50;96.50;;;;;;2057236;28;20179;-65
2021/09/21 00:54:44;;;;;;;33.33;18.50;;;11.50;96.60;;;;;;2057263;28;20270;-65
2021/09/21 00:55:46;;;;;;;34.00;17.57;;;11.50;96.80;;;;;;2057371;28;20427;-65
2021/09/21 00:56:47;;;;;;;29.85;16.35;;;11.50;96.80;;;;;;2056996;28;20926;-66
2021/09/21 00:57:48;;;;;;;30.70;17.87;;;11.50;96.60;;;;;;2057139;28;20202;-64
2021/09/21 00:58:49;;;;;;;30.58;17.13;;;11.50;96.50;;;;;;2056291;28;20226;-65
2021/09/21 00:59:49;;;;;;;34.73;18.43;;;11.60;96.40;;;;;;2056689;28;20580;-65
2021/09/21 01:00:50;;;;;;;31.97;17.10;;;11.50;96.50;;;;;;2058558;28;20175;-66
2021/09/21 01:01:51;;;;;;;29.90;18.80;;;11.60;96.50;;;;;;2058623;28;20189;-65
2021/09/21 01:02:52;;;;;;;34.57;18.73;;;11.60;96.20;;;;;;2058704;28;20201;-65
2021/09/21 01:03:52;;;;;;;31.63;17.57;;;11.70;96.00;;;;;;2058933;28;20237;-65
2021/09/21 01:04:53;;;;;;;31.60;17.77;;;11.70;95.80;;;;;;2066074;28;20276;-68
2021/09/21 01:05:53;;;;;;;31.63;17.50;;;11.70;95.80;;;;;;2066289;28;20253;-65
2021/09/21 01:06:54;;;;;;;32.03;18.33;;;11.70;95.70;;;;;;2058623;28;20203;-66
2021/09/21 01:07:55;;;;;;;31.60;18.30;;;11.80;95.60;;;;;;2058917;28;20281;-66
2021/09/21 01:08:56;;;;;;;31.27;18.07;;;11.80;95.60;;;;;;2058572;28;20643;-65
2021/09/21 01:10:04;;;;;;;30.73;18.50;;;11.80;95.30;;;;;;2058807;28;20206;-66
2021/09/21 01:11:10;;;;;;;27.98;16.30;;;11.90;95.20;;;;;;2058502;28;20171;-66
2021/09/21 01:12:12;;;;;;;31.02;16.63;;;11.90;95.40;;;;;;2058739;28;20686;-66
2021/09/21 01:13:13;;;;;;;28.73;16.55;;;11.90;95.40;;;;;;2066072;28;20183;-66
2021/09/21 01:14:14;;;;;;;31.07;17.53;;;11.80;95.60;;;;;;2066138;28;20224;-65
2021/09/21 01:15:15;;;;;;;33.97;17.65;;;11.80;95.70;;;;;;2057823;28;20258;-65
2021/09/21 01:16:16;;;;;;;35.73;17.83;;;11.80;95.70;;;;;;2058041;28;20658;-62
2021/09/21 01:17:16;;;;;;;31.43;17.00;;;11.80;95.70;;;;;;2058602;28;20421;-67
2021/09/21 01:18:17;;;;;;;30.37;17.70;;;11.80;95.50;;;;;;2058644;28;20693;-66
2021/09/21 01:19:19;;;;;;;29.30;16.50;;;11.90;95.20;;;;;;2058772;28;20168;-65
2021/09/21 01:20:20;;;;;;;29.00;17.10;;;11.90;95.00;;;;;;2058589;28;20580;-65
2021/09/21 01:21:23;;;;;;;30.63;17.67;;;11.90;95.00;;;;;;2058222;28;20269;-67
2021/09/21 01:22:25;;;;;;;27.77;17.00;;;11.90;95.00;;;;;;2058454;28;20193;-65
2021/09/21 01:23:25;;;;;;;34.47;16.88;;;11.90;94.90;;;;;;2058573;28;20555;-65
2021/09/21 01:24:29;;;;;;;30.70;16.20;;;11.90;95.00;;;;;;2058607;28;20438;-65
2021/09/21 01:25:31;;;;;;;32.65;17.85;;;11.90;95.00;;;;;;2058612;28;20541;-65
2021/09/21 01:26:32;;;;;;;31.92;17.33;;;11.90;95.00;;;;;;2058397;28;20177;-65
2021/09/21 01:27:34;;;;;;;31.03;17.73;;;11.80;94.90;;;;;;2058588;28;20175;-66
2021/09/21 01:28:34;;;;;;;32.40;18.25;;;11.80;94.90;;;;;;2058471;28;20646;-65
2021/09/21 01:29:35;;;;;;;32.37;17.50;;;11.80;94.90;;;;;;2058497;28;20176;-65
2021/09/21 01:30:36;;;;;;;32.40;16.70;;;11.80;95.00;;;;;;2058525;28;20249;-66
2021/09/21 01:31:39;;;;;;;38.67;18.53;;;11.80;95.00;;;;;;2058107;28;20670;-65
2021/09/21 01:32:40;;;;;;;37.47;17.88;;;11.80;95.00;;;;;;2058916;28;20210;-65
2021/09/21 01:33:48;;;;;;;34.63;18.57;;;11.70;95.00;;;;;;2058536;28;20183;-67
2021/09/21 01:34:50;;;;;;;38.58;17.92;;;11.70;95.00;;;;;;2058574;28;20191;-66
2021/09/21 01:35:51;;;;;;;35.63;17.08;;;11.70;95.00;;;;;;2058615;28;20186;-67
2021/09/21 01:36:52;;;;;;;31.90;17.17;;;11.70;95.00;;;;;;2058529;28;20709;-66
2021/09/21 01:37:52;;;;;;;29.92;16.65;;;11.70;95.00;;;;;;2058415;28;20218;-65
2021/09/21 01:38:53;;;;;;;34.87;16.90;;;11.60;95.20;;;;;;2058644;28;20186;-66
2021/09/21 01:39:55;;;;;;;33.17;18.47;;;11.60;95.30;;;;;;2058522;28;20194;-66
2021/09/21 01:40:55;;;;;;;38.45;17.13;;;11.60;95.50;;;;;;2058426;28;20595;-66
2021/09/21 01:41:56;;;;;;;34.93;18.67;;;11.60;95.30;;;;;;2058156;28;20179;-66
2021/09/21 01:42:57;;;;;;;39.47;18.30;;;11.60;95.30;;;;;;2058567;28;20289;-65
2021/09/21 01:43:58;;;;;;;36.20;17.70;;;11.60;95.20;;;;;;2058540;28;20660;-65
2021/09/21 01:44:58;;;;;;;34.87;18.17;;;11.50;95.20;;;;;;2058561;28;20234;-65
2021/09/21 01:45:59;;;;;;;40.03;18.00;;;11.50;95.20;;;;;;2058685;28;20195;-67
2021/09/21 01:47:03;;;;;;;33.80;18.00;;;11.50;95.30;;;;;;2058596;28;20273;-66
2021/09/21 01:48:04;;;;;;;31.38;16.95;;;11.50;95.30;;;;;;2058357;28;20214;-66
2021/09/21 01:49:05;;;;;;;34.90;16.92;;;11.50;95.30;;;;;;2058636;28;20187;-65
2021/09/21 01:51:38;;;;;;;31.40;17.40;;;11.40;95.30;;;;;;2058135;28;20175;-66
2021/09/21 01:52:48;;;;;;;30.92;16.83;;;11.40;95.40;;;;;;2058274;28;20202;-66
2021/09/21 01:55:10;;;;;;;34.70;16.97;;;11.40;95.50;;;;;;2058368;28;20262;-66
2021/09/21 01:58:52;;;;;;;32.88;15.57;;;11.30;95.50;;;;;;2058190;28;20162;-66
2021/09/21 01:59:53;;;;;;;33.08;16.02;;;11.30;95.60;;;;;;2058518;28;20187;-65
2021/09/21 02:00:54;;;;;;;33.33;17.20;;;11.30;95.60;;;;;;2058320;28;20658;-66
2021/09/21 02:01:54;;;;;;;36.53;16.23;;;11.30;95.70;;;;;;2058069;28;20614;-66
2021/09/21 02:02:55;;;;;;;34.40;16.73;;;11.20;95.70;;;;;;2058218;28;20334;-65
2021/09/21 02:03:58;;;;;;;35.00;17.53;;;11.30;95.60;;;;;;2058356;28;20725;-66
2021/09/21 02:04:59;;;;;;;33.83;16.63;;;11.20;95.70;;;;;;2058355;28;20187;-66
2021/09/21 02:06:00;;;;;;;40.00;17.87;;;11.20;95.90;;;;;;2058358;28;20191;-67
2021/09/21 02:07:00;;;;;;;35.70;16.70;;;11.20;96.00;;;;;;2058310;28;20542;-66
2021/09/21 02:08:01;;;;;;;34.87;17.83;;;11.20;95.90;;;;;;2058339;28;20179;-66
2021/09/21 02:09:12;;;;;;;32.70;16.00;;;11.10;96.00;;;;;;2058284;28;20186;-67
2021/09/21 02:10:13;;;;;;;36.60;15.98;;;11.10;96.20;;;;;;2058341;28;20565;-65
2021/09/21 02:11:14;;;;;;;35.70;16.87;;;11.10;96.40;;;;;;2057864;28;20210;-66
2021/09/21 02:12:15;;;;;;;33.27;15.93;;;11.00;96.70;;;;;;2058272;28;20187;-65
2021/09/21 02:13:15;;;;;;;32.13;15.97;;;10.90;96.80;;;;;;2058302;28;20191;-65
2021/09/21 02:14:18;;;;;;;31.77;16.30;;;10.90;96.90;;;;;;2058257;28;20646;-66
2021/09/21 02:15:21;;;;;;;37.92;17.30;;;10.80;97.10;;;;;;2058065;28;20195;-65
2021/09/21 02:16:22;;;;;;;36.63;17.63;;;10.80;97.30;;;;;;2058324;28;20179;-65
2021/09/21 02:17:22;;;;;;;39.08;18.05;;;10.70;97.20;;;;;;2058344;28;20186;-66
2021/09/21 02:18:23;;;;;;;35.67;17.07;;;10.80;97.20;;;;;;2058245;28;20257;-65
2021/09/21 02:19:24;;;;;;;35.43;17.03;;;10.80;97.00;;;;;;2058198;28;20645;-66
2021/09/21 02:20:27;;;;;;;45.17;18.07;;;10.80;96.70;;;;;;2058157;28;20175;-66
2021/09/21 02:21:28;;;;;;;41.10;18.02;;;10.80;96.50;;;;;;2065401;28;20178;-66
2021/09/21 02:22:28;;;;;;;37.07;17.33;;;10.80;96.60;;;;;;2065531;28;20189;-66
2021/09/21 02:23:29;;;;;;;39.87;18.07;;;10.80;96.60;;;;;;2058114;28;20614;-65
2021/09/21 02:24:30;;;;;;;38.03;17.83;;;10.80;96.70;;;;;;2058416;28;20194;-65
2021/09/21 02:25:30;;;;;;;41.83;18.57;;;10.80;96.70;;;;;;2058125;28;20205;-66
2021/09/21 02:26:31;;;;;;;37.57;17.70;;;10.80;96.80;;;;;;2058320;28;20179;-65
2021/09/21 02:27:32;;;;;;;34.93;16.97;;;10.80;96.80;;;;;;2058139;28;20265;-66
2021/09/21 02:28:33;;;;;;;39.83;17.95;;;10.80;96.70;;;;;;2058297;28;20308;-66
2021/09/21 02:29:34;;;;;;;40.20;17.83;;;10.90;96.70;;;;;;2058114;28;20190;-66
2021/09/21 02:30:35;;;;;;;34.90;16.73;;;10.90;96.60;;;;;;2057959;28;20179;-67
2021/09/21 02:31:36;;;;;;;37.25;16.50;;;11.00;96.60;;;;;;2057819;28;20191;-65
2021/09/21 02:32:37;;;;;;;33.37;17.17;;;11.00;96.70;;;;;;2057924;28;20191;-66
2021/09/21 02:33:37;;;;;;;31.90;16.53;;;11.00;96.70;;;;;;2058117;28;20175;-66
2021/09/21 02:34:44;;;;;;;29.40;16.03;;;11.00;96.60;;;;;;2057968;28;20183;-65
2021/09/21 02:35:45;;;;;;;37.25;16.92;;;11.00;96.60;;;;;;2059574;28;20230;-65
2021/09/21 02:36:46;;;;;;;34.97;16.80;;;11.10;96.50;;;;;;2065895;28;20186;-65
2021/09/21 02:37:48;;;;;;;40.00;18.35;;;11.10;96.40;;;;;;2065969;28;20213;-66
2021/09/21 02:38:49;;;;;;;36.78;17.98;;;11.10;96.40;;;;;;2066152;28;20171;-66
2021/09/21 02:39:49;;;;;;;41.97;18.67;;;11.10;96.40;;;;;;2066089;28;20625;-65
2021/09/21 02:40:51;;;;;;;39.93;17.70;;;11.10;96.40;;;;;;2066290;28;20186;-65
2021/09/21 02:41:51;;;;;;;40.25;17.02;;;11.20;96.40;;;;;;2065798;28;20182;-65
2021/09/21 02:42:52;;;;;;;33.80;18.23;;;11.20;96.40;;;;;;2066030;28;20234;-65
2021/09/21 02:43:53;;;;;;;34.35;16.58;;;11.20;96.30;;;;;;2066051;28;20270;-65
2021/09/21 02:44:54;;;;;;;38.70;18.03;;;11.20;96.30;;;;;;2066086;28;20186;-65
2021/09/21 02:45:59;;;;;;;36.87;18.90;;;11.20;96.30;;;;;;2066092;28;20711;-65
2021/09/21 02:47:01;;;;;;;42.42;19.27;;;11.20;96.30;;;;;;2065958;28;20186;-65
2021/09/21 02:48:02;;;;;;;40.22;18.83;;;11.20;96.20;;;;;;2065873;28;20645;-65
2021/09/21 02:49:03;;;;;;;34.13;16.97;;;11.20;96.20;;;;;;2066148;28;20191;-66
2021/09/21 02:50:07;;;;;;;36.07;18.53;;;11.20;96.20;;;;;;2066037;28;20170;-65
2021/09/21 02:51:08;;;;;;;41.75;19.23;;;11.10;96.40;;;;;;2065737;28;20676;-65
2021/09/21 02:52:08;;;;;;;37.50;18.13;;;11.10;96.40;;;;;;2065982;28;20175;-65
2021/09/21 02:53:09;;;;;;;35.90;16.97;;;11.10;96.30;;;;;;2065958;28;20557;-66
2021/09/21 02:54:11;;;;;;;35.17;17.95;;;11.20;96.10;;;;;;2065855;28;20550;-65
2021/09/21 02:55:12;;;;;;;38.90;17.83;;;11.20;96.10;;;;;;2066034;28;20182;-65
2021/09/21 02:56:14;;;;;;;37.37;17.63;;;11.20;96.10;;;;;;2065882;28;20188;-65
2021/09/21 02:57:15;;;;;;;42.47;17.95;;;11.20;96.20;;;;;;2066041;28;20244;-65
2021/09/21 02:58:16;;;;;;;37.23;16.70;;;11.20;96.20;;;;;;2065811;28;20214;-65
2021/09/21 02:59:17;;;;;;;43.05;16.83;;;11.20;96.30;;;;;;2065796;28;20181;-66
2021/09/21 03:00:26;;;;;;;39.53;17.17;;;11.20;96.30;;;;;;2065836;28;20209;-65
2021/09/21 03:01:27;;;;;;;30.85;15.57;;;11.20;96.30;;;;;;2065710;28;20171;-66
2021/09/21 03:02:31;;;;;;;38.57;18.53;;;11.30;96.20;;;;;;2065847;28;20182;-65
2021/09/21 03:03:40;;;;;;;39.53;17.88;;;11.30;96.20;;;;;;2065811;28;20178;-66
2021/09/21 03:04:49;;;;;;;47.47;19.77;;;11.30;96.20;;;;;;2065169;28;20175;-65
2021/09/21 03:06:02;;;;;;;42.08;20.45;;;11.30;96.10;;;;;;2065328;28;20205;-65
2021/09/21 03:07:08;;;;;;;41.88;19.83;;;11.40;95.90;;;;;;2065830;28;20170;-67
2021/09/21 03:11:28;;;;;;;48.28;21.88;;;11.30;96.20;;;;;;2065727;28;20253;-66
2021/09/21 03:12:54;;;;;;;54.58;22.10;;;11.20;96.40;;;;;;2065657;28;20178;-65
2021/09/21 03:17:34;;;;;;;34.60;16.85;;;11.30;96.30;;;;;;2065700;28;20190;-66
2021/09/21 03:18:34;;;;;;;37.37;17.47;;;11.30;96.00;;;;;;2065847;28;20174;-65
2021/09/21 03:19:35;;;;;;;40.70;19.43;;;11.30;95.90;;;;;;2065747;28;20447;-65
2021/09/21 03:20:36;;;;;;;45.13;20.97;;;11.40;95.80;;;;;;2065541;28;20802;-66
2021/09/21 03:21:37;;;;;;;38.20;18.43;;;11.40;95.70;;;;;;2065326;28;20171;-65
2021/09/21 03:22:37;;;;;;;40.50;19.33;;;11.40;95.70;;;;;;2065593;28;20578;-67
2021/09/21 03:23:38;;;;;;;45.83;20.17;;;11.50;95.70;;;;;;2064581;28;20189;-66
2021/09/21 03:24:39;;;;;;;49.87;21.23;;;11.40;95.70;;;;;;2064987;28;20185;-65
2021/09/21 03:25:39;;;;;;;59.37;21.90;;;11.40;95.80;;;;;;2065505;28;20182;-67
2021/09/21 03:26:40;;;;;;;68.87;21.80;;;11.40;95.80;;;;;;2065481;28;20174;-66
2021/09/21 03:27:41;;;;;;;83.43;22.90;;;11.40;95.90;;;;;;2065668;28;20540;-65
2021/09/21 03:28:41;;;;;;;51.80;20.97;;;11.40;96.00;;;;;;2065045;28;20294;-66
2021/09/21 03:29:42;;;;;;;109.67;25.27;;;11.40;95.90;;;;;;2064948;28;20182;-65
2021/09/21 03:30:43;;;;;;;69.43;23.77;;;11.50;95.70;;;;;;2065598;28;20185;-65
2021/09/21 03:31:45;;;;;;;79.83;25.30;;;11.50;96.10;;;;;;2065272;28;20186;-65
2021/09/21 03:32:45;;;;;;;110.65;25.65;;;11.50;95.70;;;;;;2065564;28;20202;-65
2021/09/21 03:33:46;;;;;;;66.53;22.73;;;11.40;96.00;;;;;;2065598;28;20186;-67
2021/09/21 03:34:47;;;;;;;106.60;24.90;;;11.40;96.10;;;;;;2065718;28;20236;-65
2021/09/21 03:35:48;;;;;;;100.73;27.40;;;11.40;96.00;;;;;;2065500;28;20532;-66
2021/09/21 03:36:48;;;;;;;78.97;24.20;;;11.40;96.00;;;;;;2065526;28;20179;-65
2021/09/21 03:37:49;;;;;;;55.50;23.20;;;11.40;96.00;;;;;;2065574;28;20214;-65
2021/09/21 03:38:50;;;;;;;67.57;23.80;;;11.40;96.00;;;;;;2065705;28;20261;-67
2021/09/21 03:39:51;;;;;;;68.07;24.50;;;11.40;95.90;;;;;;2065622;28;20551;-65
2021/09/21 03:40:51;;;;;;;75.67;23.00;;;11.50;96.30;;;;;;2065465;28;20197;-65
2021/09/21 03:41:52;;;;;;;63.90;24.83;;;11.40;95.80;;;;;;2065348;28;20284;-66
2021/09/21 03:42:53;;;;;;;54.37;22.37;;;11.40;95.90;;;;;;2065435;28;20618;-66
2021/09/21 03:43:53;;;;;;;68.40;24.30;;;11.40;96.10;;;;;;2065638;28;20232;-64
2021/09/21 03:44:54;;;;;;;126.13;27.30;;;11.40;96.80;;;;;;2065548;28;20186;-67
2021/09/21 03:45:55;;;;;;;87.97;25.53;;;11.30;96.30;;;;;;2065458;28;20228;-66
2021/09/21 03:46:56;;;;;;;101.87;26.13;;;11.30;96.20;;;;;;2065642;28;20182;-65
2021/09/21 03:47:58;;;;;;;137.15;28.45;;;11.40;96.20;;;;;;2065612;28;20191;-66
2021/09/21 03:48:59;;;;;;;74.00;25.40;;;11.40;96.20;;;;;;2065449;28;20217;-66
2021/09/21 03:49:59;;;;;;;73.07;26.83;;;11.30;96.30;;;;;;2065586;28;20559;-65
2021/09/21 03:51:00;;;;;;;91.00;28.13;;;11.30;96.40;;;;;;2065172;28;20180;-65
2021/09/21 03:52:01;;;;;;;74.20;25.80;;;11.30;96.60;;;;;;2065569;28;20183;-65
2021/09/21 03:53:03;;;;;;;100.17;27.63;;;11.30;96.60;;;;;;2065378;28;20697;-66
2021/09/21 03:54:04;;;;;;;74.55;26.85;;;11.40;96.50;;;;;;2065598;28;20185;-66
2021/09/21 03:55:06;;;;;;;61.22;24.98;;;11.40;96.40;;;;;;2065430;28;20182;-67
2021/09/21 03:56:07;;;;;;;145.18;31.08;;;11.40;96.30;;;;;;2065556;28;20178;-65
2021/09/21 03:57:08;;;;;;;101.30;27.33;;;11.50;96.30;;;;;;2065224;28;20265;-66
2021/09/21 03:58:08;;;;;;;104.73;29.70;;;11.40;96.30;;;;;;2065322;28;20575;-67
2021/09/21 03:59:09;;;;;;;86.97;27.97;;;11.40;96.40;;;;;;2065295;28;20533;-66
2021/09/21 04:00:12;;;;;;;117.03;29.20;;;11.40;96.50;;;;;;2065592;28;20166;-65
2021/09/21 04:01:13;;;;;;;77.05;25.77;;;11.50;96.40;;;;;;2065065;28;20189;-65
2021/09/21 04:02:13;;;;;;;67.70;24.90;;;11.40;96.30;;;;;;2065390;28;20185;-65
2021/09/21 04:03:14;;;;;;;95.17;26.57;;;11.40;96.30;;;;;;2065521;28;20183;-65
2021/09/21 04:04:15;;;;;;;77.67;25.40;;;11.40;96.40;;;;;;2065706;28;20174;-66
2021/09/21 04:05:15;;;;;;;62.40;25.23;;;11.30;96.50;;;;;;2065294;28;20189;-66
2021/09/21 04:06:16;;;;;;;76.93;26.07;;;11.40;96.50;;;;;;2065542;28;20181;-67
2021/09/21 04:07:17;;;;;;;66.33;25.40;;;11.40;96.20;;;;;;2065284;28;20178;-66
2021/09/21 04:08:17;;;;;;;65.83;25.50;;;11.40;96.20;;;;;;2065500;28;20261;-67
2021/09/21 04:09:18;;;;;;;60.07;24.60;;;11.30;96.40;;;;;;2065444;28;20626;-65
2021/09/21 04:10:19;;;;;;;72.53;26.23;;;11.30;96.60;;;;;;2065578;28;20181;-66
2021/09/21 04:11:21;;;;;;;70.70;25.70;;;11.30;96.50;;;;;;2065189;28;20708;-65
2021/09/21 04:12:22;;;;;;;55.30;22.98;;;11.40;96.50;;;;;;2065236;28;20241;-65
2021/09/21 04:13:23;;;;;;;54.77;23.70;;;11.40;96.40;;;;;;2065516;28;20267;-68
2021/09/21 04:14:23;;;;;;;63.10;22.57;;;11.50;96.20;;;;;;2065465;28;20186;-65
2021/09/21 04:15:24;;;;;;;45.43;21.47;;;11.40;96.10;;;;;;2065326;28;20312;-66
2021/09/21 04:16:28;;;;;;;45.07;22.10;;;11.50;95.80;;;;;;2065561;28;20232;-66
2021/09/21 04:17:29;;;;;;;77.88;24.17;;;11.50;95.70;;;;;;2065450;28;20186;-65
2021/09/21 04:18:30;;;;;;;61.40;23.47;;;11.50;95.60;;;;;;2065293;28;20187;-64
2021/09/21 04:19:30;;;;;;;56.97;23.50;;;11.40;95.80;;;;;;2065493;28;20183;-65
2021/09/21 04:20:32;;;;;;;84.07;23.93;;;11.40;95.90;;;;;;2065354;28;20649;-65
2021/09/21 04:21:32;;;;;;;123.97;30.85;;;11.40;95.90;;;;;;2065118;28;20183;-64
2021/09/21 04:22:33;;;;;;;59.43;25.47;;;11.40;95.80;;;;;;2065328;28;20209;-65
2021/09/21 04:23:34;;;;;;;48.27;22.97;;;11.40;95.80;;;;;;2065351;28;20641;-65
2021/09/21 04:24:37;;;;;;;58.90;23.80;;;11.50;95.90;;;;;;2065334;28;20186;-64
2021/09/21 04:25:38;;;;;;;61.03;24.52;;;11.40;96.00;;;;;;2065481;28;20182;-65
2021/09/21 04:26:38;;;;;;;54.03;23.30;;;11.40;96.00;;;;;;2065395;28;20269;-64
2021/09/21 04:27:39;;;;;;;56.33;24.33;;;11.40;96.00;;;;;;2065252;28;20240;-64
2021/09/21 04:28:40;;;;;;;70.75;23.92;;;11.40;96.00;;;;;;2064538;28;20186;-65
2021/09/21 04:29:41;;;;;;;66.45;23.83;;;11.40;96.00;;;;;;2064649;28;20547;-65
2021/09/21 04:30:43;;;;;;;54.57;23.17;;;11.40;95.90;;;;;;2065379;28;20205;-65
2021/09/21 04:31:45;;;;;;;50.72;23.90;;;11.40;95.60;;;;;;2065234;28;20185;-65
2021/09/21 04:32:46;;;;;;;57.72;24.52;;;11.50;95.60;;;;;;2065268;28;20213;-66
2021/09/21 04:33:47;;;;;;;56.13;23.73;;;11.50;95.60;;;;;;2064718;28;20181;-64
2021/09/21 04:34:48;;;;;;;55.87;23.03;;;11.50;95.60;;;;;;2064170;28;20265;-65
2021/09/21 04:35:52;;;;;;;61.10;24.13;;;11.50;95.70;;;;;;2065072;28;20555;-66
2021/09/21 04:36:53;;;;;;;63.63;24.70;;;11.50;95.70;;;;;;2065273;28;20313;-64
2021/09/21 04:37:53;;;;;;;54.23;23.87;;;11.50;95.60;;;;;;2065353;28;20229;-65
2021/09/21 04:38:54;;;;;;;59.73;25.27;;;11.50;95.70;;;;;;2065143;28;20186;-64
2021/09/21 04:39:55;;;;;;;54.93;22.73;;;11.50;95.80;;;;;;2065256;28;20182;-64
2021/09/21 04:40:55;;;;;;;46.90;22.77;;;11.60;95.60;;;;;;2065226;28;20645;-69
2021/09/21 04:41:57;;;;;;;54.47;23.07;;;11.60;95.40;;;;;;2065024;28;20187;-64
2021/09/21 04:42:57;;;;;;;53.67;24.17;;;11.60;95.20;;;;;;2065128;28;20194;-66
2021/09/21 04:43:59;;;;;;;48.83;22.63;;;11.70;95.20;;;;;;2065184;28;20174;-64
2021/09/21 04:45:00;;;;;;;54.40;23.80;;;11.70;95.20;;;;;;2064974;28;20189;-65
2021/09/21 04:46:00;;;;;;;55.70;24.13;;;11.70;95.30;;;;;;2065243;28;20549;-65
2021/09/21 04:47:02;;;;;;;60.07;23.83;;;11.70;95.30;;;;;;2065137;28;20660;-64
2021/09/21 04:48:04;;;;;;;47.55;22.48;;;11.70;95.30;;;;;;2064507;28;20876;-65
2021/09/21 04:49:05;;;;;;;55.42;24.08;;;11.70;95.10;;;;;;2056472;28;20550;-64
2021/09/21 04:50:06;;;;;;;49.50;22.50;;;11.70;95.00;;;;;;2064476;28;20178;-65
2021/09/21 04:51:07;;;;;;;52.30;24.17;;;11.70;95.00;;;;;;2064912;28;20179;-64
2021/09/21 04:52:08;;;;;;;45.13;21.67;;;11.70;95.00;;;;;;2065157;28;20661;-64
2021/09/21 04:53:09;;;;;;;51.77;23.10;;;11.70;94.90;;;;;;2065078;28;20575;-65
2021/09/21 04:54:09;;;;;;;53.17;22.80;;;11.70;94.90;;;;;;2065247;28;20189;-64
2021/09/21 04:55:10;;;;;;;61.23;24.30;;;11.80;94.90;;;;;;2064944;28;20179;-65
2021/09/21 04:56:11;;;;;;;53.43;22.73;;;11.60;94.90;;;;;;2065203;28;20317;-65
2021/09/21 04:57:12;;;;;;;58.67;24.63;;;11.60;95.20;;;;;;2065175;28;20182;-64
2021/09/21 04:58:12;;;;;;;54.60;23.80;;;11.50;95.50;;;;;;2065099;28;20198;-65
2021/09/21 04:59:13;;;;;;;54.50;23.37;;;11.50;95.70;;;;;;2065141;28;20475;-65
2021/09/21 05:00:14;;;;;;;48.27;23.27;;;11.50;95.70;;;;;;2065109;28;20171;-66
2021/09/21 05:01:15;;;;;;;48.65;23.08;;;11.50;95.70;;;;;;2064850;28;20178;-64
2021/09/21 05:02:16;;;;;;;48.77;22.83;;;11.60;95.60;;;;;;2065043;28;20261;-65
2021/09/21 05:03:17;;;;;;;56.73;23.87;;;11.60;95.40;;;;;;2065019;28;20170;-65
2021/09/21 05:04:17;;;;;;;54.60;23.50;;;11.60;95.20;;;;;;2065053;28;20241;-65
2021/09/21 05:05:20;;;;;;;52.87;22.40;;;11.70;94.90;;;;;;2064897;28;20175;-65
2021/09/21 05:06:20;;;;;;;56.42;23.95;;;11.70;94.90;;;;;;2065040;28;20709;-65
2021/09/21 05:07:21;;;;;;;48.77;22.87;;;11.70;94.90;;;;;;2065035;28;20179;-64
2021/09/21 05:08:22;;;;;;;57.67;23.53;;;11.70;94.90;;;;;;2065010;28;20210;-66
2021/09/21 05:09:24;;;;;;;48.77;24.03;;;11.70;94.90;;;;;;2065194;28;20665;-64
2021/09/21 05:10:24;;;;;;;52.92;23.00;;;11.70;94.90;;;;;;2065110;28;20248;-65
2021/09/21 05:11:25;;;;;;;46.90;22.57;;;11.70;94.90;;;;;;2064830;28;20646;-65
2021/09/21 05:12:26;;;;;;;49.73;22.90;;;11.70;94.90;;;;;;2065103;28;20237;-64
2021/09/21 05:13:27;;;;;;;53.10;22.13;;;11.70;94.90;;;;;;2065291;28;20175;-65
2021/09/21 05:14:29;;;;;;;52.87;23.73;;;11.80;94.90;;;;;;2064352;28;20688;-64
2021/09/21 05:15:30;;;;;;;48.75;23.23;;;11.80;94.70;;;;;;2064667;28;20267;-64
2021/09/21 05:16:30;;;;;;;47.17;22.33;;;11.80;94.50;;;;;;2065208;28;20186;-65
2021/09/21 05:17:31;;;;;;;45.13;22.60;;;11.80;94.50;;;;;;2065355;28;20422;-64
2021/09/21 05:18:33;;;;;;;44.63;21.23;;;11.80;94.70;;;;;;2065107;28;20728;-64
2021/09/21 05:19:33;;;;;;;61.63;24.48;;;11.70;94.90;;;;;;2065092;28;20183;-65
2021/09/21 05:20:34;;;;;;;51.77;23.40;;;11.70;94.90;;;;;;2064949;28;20183;-64
2021/09/21 05:21:36;;;;;;;52.10;23.60;;;11.60;95.20;;;;;;2064694;28;20175;-64
2021/09/21 05:22:37;;;;;;;43.83;21.10;;;11.60;95.30;;;;;;2064795;28;20194;-65
2021/09/21 05:23:38;;;;;;;43.55;21.15;;;11.70;95.20;;;;;;2065104;28;20183;-65